createdAt,value
2018-11-10T00:01:56.177Z,23.91
2018-11-10T00:04:22.903Z,23.91
2018-11-10T00:06:49.555Z,23.88
2018-11-10T00:09:16.193Z,23.88
2018-11-10T00:11:42.946Z,23.91
2018-11-10T00:14:09.656Z,23.86
2018-11-10T00:16:36.401Z,23.88
2018-11-10T00:19:03.059Z,23.84
2018-11-10T00:21:29.666Z,23.85
2018-11-10T00:23:56.435Z,23.83
2018-11-10T00:26:23.126Z,23.83
2018-11-10T00:28:52.216Z,23.81
2018-11-10T00:31:19.031Z,23.80
2018-11-10T00:33:45.826Z,23.81
2018-11-10T00:36:12.552Z,23.79
2018-11-10T00:38:39.182Z,23.76
2018-11-10T00:41:05.870Z,23.78
2018-11-10T00:43:35.420Z,23.75
2018-11-10T00:46:02.071Z,23.75
2018-11-10T00:48:28.795Z,23.76
2018-11-10T00:50:55.474Z,23.75
2018-11-10T00:53:22.169Z,23.77
2018-11-10T00:55:48.845Z,23.74
2018-11-10T00:58:15.555Z,23.75
2018-11-10T01:00:42.192Z,23.74
2018-11-10T01:03:08.994Z,23.73
2018-11-10T01:05:35.713Z,23.72
2018-11-10T01:08:02.343Z,23.70
2018-11-10T01:10:29.040Z,23.68
2018-11-10T01:12:55.693Z,23.68
2018-11-10T01:15:22.395Z,23.69
2018-11-10T01:17:49.141Z,23.69
2018-11-10T01:20:17.697Z,23.70
2018-11-10T01:22:44.454Z,23.70
2018-11-10T01:25:11.093Z,23.69
2018-11-10T01:27:37.784Z,23.69
2018-11-10T01:30:04.508Z,23.69
2018-11-10T01:32:31.149Z,23.68
2018-11-10T01:34:57.862Z,23.67
2018-11-10T01:37:24.516Z,23.67
2018-11-10T01:39:51.165Z,23.66
2018-11-10T01:42:17.940Z,23.69
2018-11-10T01:44:44.636Z,23.69
2018-11-10T01:47:11.270Z,23.65
2018-11-10T01:49:37.914Z,23.66
2018-11-10T01:52:04.705Z,23.65
2018-11-10T01:54:31.397Z,23.65
2018-11-10T01:56:58.035Z,23.66
2018-11-10T01:59:24.774Z,23.65
2018-11-10T02:01:51.432Z,23.67
2018-11-10T02:04:18.075Z,23.64
2018-11-10T02:06:44.841Z,23.61
2018-11-10T02:09:11.487Z,23.63
2018-11-10T02:11:38.166Z,23.60
2018-11-10T02:14:04.865Z,23.60
2018-11-10T02:16:31.597Z,23.58
2018-11-10T02:18:58.344Z,23.61
2018-11-10T02:21:25.031Z,23.57
2018-11-10T02:23:51.725Z,23.57
2018-11-10T02:26:18.374Z,23.56
2018-11-10T02:28:45.072Z,23.55
2018-11-10T02:31:11.806Z,23.52
2018-11-10T02:33:40.706Z,23.51
2018-11-10T02:36:07.435Z,23.52
2018-11-10T02:38:34.108Z,23.52
2018-11-10T02:41:03.988Z,23.52
2018-11-10T02:43:30.650Z,23.49
2018-11-10T02:45:57.347Z,23.49
2018-11-10T02:48:24.079Z,23.49
2018-11-10T02:50:50.690Z,23.51
2018-11-10T02:53:17.381Z,23.48
2018-11-10T02:55:44.067Z,23.48
2018-11-10T02:58:10.789Z,23.27
2018-11-10T03:00:37.439Z,23.10
2018-11-10T03:03:07.664Z,22.95
2018-11-10T03:05:32.923Z,23.01
2018-11-10T03:07:59.594Z,23.04
2018-11-10T03:10:26.209Z,23.10
2018-11-10T03:12:52.924Z,23.20
2018-11-10T03:15:19.660Z,23.26
2018-11-10T03:17:46.359Z,23.30
2018-11-10T03:20:13.119Z,23.37
2018-11-10T03:22:39.906Z,23.37
2018-11-10T03:25:06.657Z,23.38
2018-11-10T03:27:35.340Z,23.40
2018-11-10T03:29:59.997Z,23.40
2018-11-10T03:32:26.781Z,23.40
2018-11-10T03:34:53.583Z,23.43
2018-11-10T03:37:20.321Z,23.43
2018-11-10T03:39:46.955Z,23.43
2018-11-10T03:42:13.704Z,23.47
2018-11-10T03:44:40.511Z,23.47
2018-11-10T03:47:10.068Z,23.47
2018-11-10T03:49:36.879Z,23.48
2018-11-10T03:52:03.539Z,23.48
2018-11-10T03:54:30.255Z,23.51
2018-11-10T03:56:56.923Z,23.52
2018-11-10T03:59:23.631Z,23.51
2018-11-10T04:01:50.397Z,23.48
2018-11-10T04:04:17.147Z,23.48
2018-11-10T04:06:43.765Z,23.48
2018-11-10T04:09:10.416Z,23.49
2018-11-10T04:11:37.238Z,23.49
2018-11-10T04:14:06.849Z,23.49
2018-11-10T04:16:33.621Z,23.47
2018-11-10T04:19:00.277Z,23.49
2018-11-10T04:21:26.932Z,23.48
2018-11-10T04:23:53.764Z,23.48
2018-11-10T04:26:20.401Z,23.48
2018-11-10T04:28:47.150Z,23.49
2018-11-10T04:31:13.760Z,23.49
2018-11-10T04:33:40.630Z,23.49
2018-11-10T04:36:07.338Z,23.50
2018-11-10T04:38:34.072Z,23.49
2018-11-10T04:41:00.765Z,23.47
2018-11-10T04:43:27.430Z,23.51
2018-11-10T04:45:54.154Z,23.51
2018-11-10T04:48:23.727Z,23.49
2018-11-10T04:50:50.524Z,23.50
2018-11-10T04:53:17.188Z,23.46
2018-11-10T04:55:43.901Z,23.49
2018-11-10T04:58:10.652Z,23.46
2018-11-10T05:00:37.278Z,23.47
2018-11-10T05:03:04.110Z,23.49
2018-11-10T05:05:30.747Z,23.48
2018-11-10T05:07:57.555Z,23.46
2018-11-10T05:10:24.342Z,23.47
2018-11-10T05:12:50.962Z,23.48
2018-11-10T05:15:17.712Z,23.49
2018-11-10T05:17:44.326Z,23.46
2018-11-10T05:20:11.043Z,23.47
2018-11-10T05:22:37.701Z,23.49
2018-11-10T05:25:04.462Z,23.48
2018-11-10T05:27:31.167Z,23.52
2018-11-10T05:29:57.968Z,23.51
2018-11-10T05:32:24.710Z,23.55
2018-11-10T05:34:54.375Z,23.64
2018-11-10T05:37:21.025Z,23.67
2018-11-10T05:39:48.990Z,23.77
2018-11-10T05:42:14.424Z,23.82
2018-11-10T05:44:41.078Z,23.86
2018-11-10T05:47:07.836Z,23.88
2018-11-10T05:49:34.461Z,23.95
2018-11-10T05:52:01.190Z,24.02
2018-11-10T05:54:27.844Z,24.04
2018-11-10T05:56:54.545Z,24.05
2018-11-10T05:59:21.232Z,23.90
2018-11-10T06:01:47.917Z,23.94
2018-11-10T06:04:14.589Z,23.98
2018-11-10T06:06:44.234Z,24.00
2018-11-10T06:09:11.039Z,24.04
2018-11-10T06:11:37.730Z,24.03
2018-11-10T06:14:04.396Z,24.04
2018-11-10T06:16:31.190Z,24.12
2018-11-10T06:18:58.103Z,24.08
2018-11-10T06:21:24.718Z,24.12
2018-11-10T06:23:51.416Z,24.17
2018-11-10T06:26:18.212Z,24.23
2018-11-10T06:28:46.051Z,24.26
2018-11-10T06:31:12.805Z,24.36
2018-11-10T06:33:39.425Z,24.38
2018-11-10T06:36:06.135Z,24.46
2018-11-10T06:38:32.827Z,24.46
2018-11-10T06:40:59.573Z,24.56
2018-11-10T06:43:29.324Z,24.58
2018-11-10T06:45:57.689Z,24.60
2018-11-10T06:48:22.855Z,24.64
2018-11-10T06:50:49.502Z,24.67
2018-11-10T06:53:16.229Z,24.70
2018-11-10T06:55:42.918Z,24.76
2018-11-10T06:58:12.037Z,24.77
2018-11-10T07:00:38.704Z,24.82
2018-11-10T07:03:05.441Z,24.86
2018-11-10T07:05:35.321Z,24.93
2018-11-10T07:08:01.969Z,24.95
2018-11-10T07:10:28.693Z,24.97
2018-11-10T07:12:55.403Z,25.01
2018-11-10T07:15:22.056Z,25.07
2018-11-10T07:17:48.792Z,25.11
2018-11-10T07:20:15.615Z,25.10
2018-11-10T07:22:42.258Z,25.12
2018-11-10T07:25:11.804Z,25.14
2018-11-10T07:27:38.629Z,25.16
2018-11-10T07:30:05.405Z,25.20
2018-11-10T07:32:32.155Z,25.22
2018-11-10T07:34:58.878Z,25.26
2018-11-10T07:37:25.725Z,25.26
2018-11-10T07:39:52.457Z,25.30
2018-11-10T07:42:20.166Z,25.29
2018-11-10T07:44:46.980Z,25.30
2018-11-10T07:47:13.620Z,25.28
2018-11-10T07:49:40.326Z,25.30
2018-11-10T07:52:07.508Z,25.32
2018-11-10T07:54:34.130Z,25.32
2018-11-10T07:57:00.851Z,25.29
2018-11-10T07:59:28.873Z,25.28
2018-11-10T08:01:54.265Z,25.27
2018-11-10T08:04:21.069Z,25.25
2018-11-10T08:06:47.770Z,25.23
2018-11-10T08:09:14.403Z,25.21
2018-11-10T08:11:41.192Z,25.21
2018-11-10T08:14:12.929Z,25.22
2018-11-10T08:16:39.638Z,25.22
2018-11-10T08:19:06.442Z,25.24
2018-11-10T08:21:33.065Z,25.22
2018-11-10T08:23:59.793Z,25.22
2018-11-10T08:26:26.509Z,25.25
2018-11-10T08:28:53.245Z,25.24
2018-11-10T08:31:22.929Z,25.22
2018-11-10T08:33:49.539Z,25.21
2018-11-10T08:36:16.200Z,25.22
2018-11-10T08:38:45.954Z,25.23
2018-11-10T08:41:12.613Z,25.25
2018-11-10T08:43:39.354Z,25.23
2018-11-10T08:46:06.050Z,25.26
2018-11-10T08:48:32.674Z,25.26
2018-11-10T08:50:59.377Z,25.27
2018-11-10T08:53:26.057Z,25.26
2018-11-10T08:55:52.818Z,25.27
2018-11-10T08:58:19.437Z,25.29
2018-11-10T09:00:46.133Z,25.29
2018-11-10T09:03:12.803Z,25.28
2018-11-10T09:05:39.475Z,25.30
2018-11-10T09:08:06.193Z,25.30
2018-11-10T09:10:32.843Z,25.31
2018-11-10T09:12:59.697Z,25.31
2018-11-10T09:15:26.319Z,25.33
2018-11-10T09:17:55.950Z,25.33
2018-11-10T09:20:20.531Z,25.33
2018-11-10T09:22:47.270Z,25.33
2018-11-10T09:25:15.326Z,25.29
2018-11-10T09:27:40.704Z,25.31
2018-11-10T09:30:07.410Z,25.22
2018-11-10T09:32:34.187Z,25.25
2018-11-10T09:35:00.889Z,25.17
2018-11-10T09:37:30.625Z,25.21
2018-11-10T09:40:00.219Z,25.15
2018-11-10T09:42:27.148Z,25.17
2018-11-10T09:44:53.593Z,25.13
2018-11-10T09:47:20.425Z,25.14
2018-11-10T09:49:47.138Z,25.10
2018-11-10T09:52:13.823Z,25.10
2018-11-10T09:54:40.560Z,25.11
2018-11-10T09:57:07.199Z,25.10
2018-11-10T09:59:35.270Z,25.11
2018-11-10T10:02:01.020Z,25.09
2018-11-10T10:04:27.452Z,25.11
2018-11-10T10:06:54.123Z,25.10
2018-11-10T10:09:23.020Z,25.10
2018-11-10T10:11:52.848Z,25.09
2018-11-10T10:14:19.601Z,25.10
2018-11-10T10:16:47.610Z,25.11
2018-11-10T10:19:13.045Z,25.12
2018-11-10T10:21:39.861Z,25.11
2018-11-10T10:24:06.489Z,25.12
2018-11-10T10:26:33.228Z,25.12
2018-11-10T10:29:00.003Z,25.10
2018-11-10T10:31:26.619Z,25.15
2018-11-10T10:33:53.383Z,25.14
2018-11-10T10:36:20.028Z,25.17
2018-11-10T10:38:47.694Z,25.16
2018-11-10T10:41:13.411Z,25.18
2018-11-10T10:43:40.074Z,25.16
2018-11-10T10:46:06.869Z,25.20
2018-11-10T10:48:33.746Z,25.16
2018-11-10T10:51:00.279Z,25.21
2018-11-10T10:53:27.106Z,25.16
2018-11-10T10:55:53.941Z,25.21
2018-11-10T10:58:20.631Z,25.17
2018-11-10T11:00:50.703Z,25.24
2018-11-10T11:03:17.465Z,24.99
2018-11-10T11:05:44.178Z,24.80
2018-11-10T11:08:12.225Z,24.82
2018-11-10T11:10:37.553Z,24.83
2018-11-10T11:13:04.259Z,25.01
2018-11-10T11:15:31.041Z,25.10
2018-11-10T11:17:57.585Z,25.19
2018-11-10T11:20:24.298Z,25.22
2018-11-10T11:22:54.033Z,25.26
2018-11-10T11:25:20.749Z,25.24
2018-11-10T11:27:47.392Z,25.29
2018-11-10T11:30:14.158Z,25.24
2018-11-10T11:32:40.786Z,25.28
2018-11-10T11:35:07.508Z,25.24
2018-11-10T11:37:34.239Z,25.26
2018-11-10T11:40:00.993Z,25.24
2018-11-10T11:42:27.756Z,25.27
2018-11-10T11:44:54.435Z,25.24
2018-11-10T11:47:21.120Z,25.26
2018-11-10T11:49:47.899Z,25.26
2018-11-10T11:52:14.531Z,25.26
2018-11-10T11:54:41.211Z,25.26
2018-11-10T11:57:07.965Z,25.24
2018-11-10T11:59:34.746Z,25.26
2018-11-10T12:02:02.883Z,25.22
2018-11-10T12:04:28.202Z,25.27
2018-11-10T12:06:56.714Z,25.23
2018-11-10T12:09:21.844Z,25.29
2018-11-10T12:11:48.555Z,25.24
2018-11-10T12:14:18.042Z,25.31
2018-11-10T12:16:44.918Z,25.24
2018-11-10T12:19:12.809Z,25.29
2018-11-10T12:21:38.221Z,25.22
2018-11-10T12:24:04.907Z,25.30
2018-11-10T12:26:31.649Z,25.21
2018-11-10T12:28:58.409Z,25.28
2018-11-10T12:31:25.092Z,25.23
2018-11-10T12:33:52.926Z,25.29
2018-11-10T12:36:19.798Z,25.23
2018-11-10T12:38:45.169Z,25.28
2018-11-10T12:41:13.955Z,25.23
2018-11-10T12:43:38.482Z,25.25
2018-11-10T12:46:05.234Z,25.23
2018-11-10T12:48:32.001Z,25.26
2018-11-10T12:50:58.707Z,25.24
2018-11-10T12:53:25.388Z,25.25
2018-11-10T12:55:54.818Z,25.23
2018-11-10T12:58:21.511Z,25.23
2018-11-10T13:00:53.340Z,25.22
2018-11-10T13:03:17.608Z,25.24
2018-11-10T13:05:44.318Z,25.22
2018-11-10T13:08:11.064Z,25.22
2018-11-10T13:10:37.690Z,25.22
2018-11-10T13:13:04.341Z,25.20
2018-11-10T13:15:31.012Z,25.20
2018-11-10T13:17:57.845Z,25.21
2018-11-10T13:20:24.597Z,25.21
2018-11-10T13:22:51.233Z,25.20
2018-11-10T13:25:17.887Z,25.21
2018-11-10T13:27:44.594Z,25.22
2018-11-10T13:30:13.269Z,25.19
2018-11-10T13:32:40.042Z,25.21
2018-11-10T13:35:06.727Z,25.19
2018-11-10T13:37:33.397Z,25.20
2018-11-10T13:40:00.071Z,25.20
2018-11-10T13:42:26.831Z,25.22
2018-11-10T13:44:53.554Z,25.19
2018-11-10T13:47:20.215Z,25.22
2018-11-10T13:49:46.920Z,25.19
2018-11-10T13:52:13.970Z,25.19
2018-11-10T13:54:40.297Z,25.17
2018-11-10T13:57:06.951Z,25.20
2018-11-10T13:59:33.619Z,25.17
2018-11-10T14:02:00.385Z,25.19
2018-11-10T14:04:27.057Z,25.14
2018-11-10T14:06:53.906Z,25.16
2018-11-10T14:09:20.581Z,25.10
2018-11-10T14:11:47.252Z,25.13
2018-11-10T14:14:14.053Z,25.12
2018-11-10T14:16:40.701Z,25.10
2018-11-10T14:19:07.410Z,25.09
2018-11-10T14:21:34.077Z,25.05
2018-11-10T14:24:00.793Z,25.06
2018-11-10T14:26:27.705Z,25.03
2018-11-10T14:28:54.251Z,25.03
2018-11-10T14:31:20.910Z,25.00
2018-11-10T14:33:47.616Z,25.00
2018-11-10T14:36:14.341Z,24.97
2018-11-10T14:38:41.038Z,24.99
2018-11-10T14:41:07.735Z,24.96
2018-11-10T14:43:34.433Z,24.94
2018-11-10T14:46:01.097Z,24.92
2018-11-10T14:48:27.892Z,24.91
2018-11-10T14:50:54.628Z,24.91
2018-11-10T14:53:21.440Z,24.92
2018-11-10T14:55:49.451Z,24.90
2018-11-10T14:58:14.808Z,24.88
2018-11-10T15:00:41.623Z,24.86
2018-11-10T15:03:08.354Z,24.86
2018-11-10T15:05:35.197Z,24.83
2018-11-10T15:08:01.859Z,24.88
2018-11-10T15:10:28.545Z,24.81
2018-11-10T15:12:55.206Z,24.82
2018-11-10T15:15:21.934Z,24.80
2018-11-10T15:17:48.754Z,24.81
2018-11-10T15:20:15.246Z,24.78
2018-11-10T15:22:41.950Z,24.80
2018-11-10T15:25:08.706Z,24.76
2018-11-10T15:27:35.385Z,24.76
2018-11-10T15:30:02.185Z,24.72
2018-11-10T15:32:28.997Z,24.70
2018-11-10T15:34:55.739Z,24.69
2018-11-10T15:37:22.630Z,24.70
2018-11-10T15:39:49.303Z,24.65
2018-11-10T15:42:16.022Z,24.68
2018-11-10T15:44:42.681Z,24.64
2018-11-10T15:47:09.334Z,24.65
2018-11-10T15:49:37.243Z,24.62
2018-11-10T15:52:02.703Z,24.63
2018-11-10T15:54:29.433Z,24.58
2018-11-10T15:56:56.191Z,24.60
2018-11-10T15:59:26.606Z,24.59
2018-11-10T16:01:53.239Z,24.55
2018-11-10T16:04:19.937Z,24.51
2018-11-10T16:06:46.666Z,24.51
2018-11-10T16:09:13.479Z,24.49
2018-11-10T16:11:40.076Z,24.51
2018-11-10T16:14:08.503Z,24.48
2018-11-10T16:16:34.847Z,24.44
2018-11-10T16:19:00.400Z,24.42
2018-11-10T16:21:27.093Z,24.43
2018-11-10T16:23:53.710Z,24.40
2018-11-10T16:26:20.459Z,24.39
2018-11-10T16:28:48.532Z,24.36
2018-11-10T16:31:13.782Z,24.39
2018-11-10T16:33:40.645Z,24.37
2018-11-10T16:36:08.633Z,24.36
2018-11-10T16:38:34.090Z,24.32
2018-11-10T16:41:00.884Z,24.34
2018-11-10T16:43:27.503Z,24.31
2018-11-10T16:45:54.314Z,24.31
2018-11-10T16:48:21.037Z,24.28
2018-11-10T16:50:49.133Z,24.27
2018-11-10T16:53:14.442Z,24.27
2018-11-10T16:55:41.140Z,24.29
2018-11-10T16:58:07.855Z,24.25
2018-11-10T17:00:34.552Z,24.24
2018-11-10T17:03:01.315Z,24.23
2018-11-10T17:05:27.961Z,24.20
2018-11-10T17:07:54.665Z,24.18
2018-11-10T17:10:21.384Z,24.18
2018-11-10T17:12:49.485Z,24.21
2018-11-10T17:15:14.909Z,24.27
2018-11-10T17:17:41.589Z,24.28
2018-11-10T17:20:08.283Z,24.27
2018-11-10T17:22:35.024Z,24.26
2018-11-10T17:25:01.586Z,24.26
2018-11-10T17:27:28.318Z,24.25
2018-11-10T17:29:54.979Z,24.28
2018-11-10T17:32:21.823Z,24.29
2018-11-10T17:34:48.627Z,24.28
2018-11-10T17:37:15.444Z,24.27
2018-11-10T17:39:42.322Z,24.26
2018-11-10T17:42:08.926Z,24.25
2018-11-10T17:44:35.523Z,24.23
2018-11-10T17:47:02.170Z,24.26
2018-11-10T17:49:29.011Z,24.26
2018-11-10T17:51:55.800Z,24.24
2018-11-10T17:54:22.423Z,24.23
2018-11-10T17:56:49.312Z,24.24
2018-11-10T17:59:17.493Z,24.25
2018-11-10T18:01:42.763Z,24.23
2018-11-10T18:04:09.389Z,24.22
2018-11-10T18:06:36.108Z,24.23
2018-11-10T18:09:02.809Z,24.23
2018-11-10T18:11:30.883Z,24.24
2018-11-10T18:13:56.173Z,24.24
2018-11-10T18:16:22.983Z,24.20
2018-11-10T18:18:49.763Z,24.21
2018-11-10T18:21:16.505Z,24.25
2018-11-10T18:23:43.131Z,24.23
2018-11-10T18:26:10.449Z,24.24
2018-11-10T18:28:38.473Z,24.24
2018-11-10T18:31:03.996Z,24.21
2018-11-10T18:33:30.712Z,24.24
2018-11-10T18:35:58.972Z,24.24
2018-11-10T18:38:24.158Z,24.25
2018-11-10T18:40:50.853Z,24.24
2018-11-10T18:43:18.078Z,24.21
2018-11-10T18:45:44.792Z,24.22
2018-11-10T18:48:11.606Z,24.22
2018-11-10T18:50:38.221Z,24.24
2018-11-10T18:53:04.923Z,24.19
2018-11-10T18:55:32.943Z,24.17
2018-11-10T18:57:58.536Z,24.15
2018-11-10T19:00:25.165Z,24.14
2018-11-10T19:02:51.923Z,24.14
2018-11-10T19:05:18.643Z,23.89
2018-11-10T19:07:45.341Z,23.79
2018-11-10T19:10:12.232Z,23.75
2018-11-10T19:12:42.370Z,23.71
2018-11-10T19:15:09.104Z,23.79
2018-11-10T19:17:35.856Z,23.92
2018-11-10T19:20:02.582Z,23.96
2018-11-10T19:22:29.293Z,24.00
2018-11-10T19:24:56.011Z,24.05
2018-11-10T19:27:22.837Z,24.08
2018-11-10T19:29:49.611Z,24.10
2018-11-10T19:32:16.492Z,24.12
2018-11-10T19:34:43.105Z,24.12
2018-11-10T19:37:09.906Z,24.11
2018-11-10T19:39:36.563Z,24.10
2018-11-10T19:42:03.252Z,24.05
2018-11-10T19:44:29.974Z,24.05
2018-11-10T19:46:56.603Z,24.05
2018-11-10T19:49:23.352Z,24.05
2018-11-10T19:51:50.368Z,24.04
2018-11-10T19:54:16.695Z,24.07
2018-11-10T19:56:43.424Z,24.05
2018-11-10T19:59:10.068Z,24.02
2018-11-10T20:01:36.843Z,24.03
2018-11-10T20:04:05.674Z,24.04
2018-11-10T20:06:30.224Z,24.02
2018-11-10T20:08:57.029Z,24.05
2018-11-10T20:11:23.674Z,24.00
2018-11-10T20:13:50.399Z,24.00
2018-11-10T20:16:17.087Z,24.00
2018-11-10T20:18:43.830Z,23.99
2018-11-10T20:21:10.449Z,24.00
2018-11-10T20:23:37.158Z,24.00
2018-11-10T20:26:03.820Z,24.00
2018-11-10T20:28:30.574Z,24.01
2018-11-10T20:30:57.211Z,24.01
2018-11-10T20:33:23.895Z,24.03
2018-11-10T20:35:50.658Z,24.02
2018-11-10T20:38:17.379Z,24.03
2018-11-10T20:40:44.032Z,24.01
2018-11-10T20:43:10.773Z,23.99
2018-11-10T20:45:37.441Z,24.00
2018-11-10T20:48:04.198Z,24.01
2018-11-10T20:50:33.078Z,23.99
2018-11-10T20:53:00.071Z,24.03
2018-11-10T20:55:26.782Z,23.99
2018-11-10T20:57:53.437Z,24.00
2018-11-10T21:00:20.230Z,23.99
2018-11-10T21:02:46.801Z,24.01
2018-11-10T21:05:13.469Z,23.99
2018-11-10T21:07:41.970Z,23.99
2018-11-10T21:10:08.415Z,23.97
2018-11-10T21:12:33.507Z,23.98
2018-11-10T21:15:00.250Z,23.97
2018-11-10T21:17:26.873Z,23.96
2018-11-10T21:19:53.698Z,23.95
2018-11-10T21:22:21.802Z,23.95
2018-11-10T21:24:47.124Z,23.93
2018-11-10T21:27:13.743Z,23.95
2018-11-10T21:29:41.194Z,23.94
2018-11-10T21:32:07.748Z,23.93
2018-11-10T21:34:34.452Z,23.92
2018-11-10T21:37:01.270Z,23.96
2018-11-10T21:39:28.002Z,23.93
2018-11-10T21:41:54.718Z,23.91
2018-11-10T21:44:21.353Z,23.88
2018-11-10T21:46:48.086Z,23.91
2018-11-10T21:49:14.760Z,23.90
2018-11-10T21:51:41.474Z,23.89
2018-11-10T21:54:11.451Z,23.86
2018-11-10T21:56:38.223Z,23.88
2018-11-10T21:59:04.936Z,23.84
2018-11-10T22:01:31.584Z,23.85
2018-11-10T22:03:58.303Z,23.84
2018-11-10T22:06:24.959Z,23.85
2018-11-10T22:08:51.777Z,23.85
2018-11-10T22:11:18.416Z,23.84
2018-11-10T22:13:45.086Z,23.82
2018-11-10T22:16:11.885Z,23.84
2018-11-10T22:18:38.610Z,23.83
2018-11-10T22:21:05.325Z,23.83
2018-11-10T22:23:32.088Z,23.80
2018-11-10T22:26:01.740Z,23.81
2018-11-10T22:28:28.385Z,23.81
2018-11-10T22:30:55.216Z,23.82
2018-11-10T22:33:21.869Z,23.78
2018-11-10T22:35:48.595Z,23.78
2018-11-10T22:38:17.233Z,23.76
2018-11-10T22:40:43.965Z,23.75
2018-11-10T22:43:10.753Z,23.77
2018-11-10T22:45:37.405Z,23.75
2018-11-10T22:48:04.177Z,23.76
2018-11-10T22:50:30.786Z,23.76
2018-11-10T22:52:57.519Z,23.74
2018-11-10T22:55:24.169Z,23.75
2018-11-10T22:57:50.873Z,23.75
2018-11-10T23:00:17.642Z,23.72
2018-11-10T23:02:44.287Z,23.74
2018-11-10T23:05:11.053Z,23.72
2018-11-10T23:07:37.762Z,23.72
2018-11-10T23:10:04.430Z,23.71
2018-11-10T23:12:34.625Z,23.70
2018-11-10T23:15:01.267Z,23.70
2018-11-10T23:17:28.036Z,23.68
2018-11-10T23:19:54.695Z,23.69
2018-11-10T23:22:21.398Z,23.67
2018-11-10T23:24:48.119Z,23.68
2018-11-10T23:27:18.277Z,23.66
2018-11-10T23:29:44.984Z,23.67
2018-11-10T23:32:11.696Z,23.64
2018-11-10T23:34:38.379Z,23.63
2018-11-10T23:37:05.004Z,23.64
2018-11-10T23:39:31.796Z,23.63
2018-11-10T23:41:58.544Z,23.63
2018-11-10T23:44:25.246Z,23.61
2018-11-10T23:46:51.988Z,23.61
2018-11-10T23:49:18.684Z,23.61
2018-11-10T23:51:45.410Z,23.61
2018-11-10T23:54:12.136Z,23.61
2018-11-10T23:56:40.054Z,23.62
2018-11-10T23:59:05.497Z,23.61
